createdAt,value
2018-12-09T00:01:14.823Z,2.40
2018-12-09T00:03:42.788Z,2.70
2018-12-09T00:06:10.838Z,2.47
2018-12-09T00:08:38.911Z,2.80
2018-12-09T00:11:07.493Z,2.50
2018-12-09T00:13:35.504Z,2.70
2018-12-09T00:16:03.575Z,2.57
2018-12-09T00:18:31.553Z,2.57
2018-12-09T00:20:59.580Z,2.83
2018-12-09T00:23:27.546Z,3.50
2018-12-09T00:25:55.567Z,3.13
2018-12-09T00:28:23.598Z,3.33
2018-12-09T00:30:51.664Z,2.67
2018-12-09T00:33:26.479Z,3.20
2018-12-09T00:35:54.531Z,2.87
2018-12-09T00:38:22.560Z,3.67
2018-12-09T00:40:50.649Z,2.87
2018-12-09T00:43:18.697Z,3.23
2018-12-09T00:45:46.676Z,2.80
2018-12-09T00:48:14.636Z,2.83
2018-12-09T00:50:42.679Z,2.73
2018-12-09T00:53:10.662Z,2.87
2018-12-09T00:55:39.206Z,2.50
2018-12-09T00:58:07.169Z,2.40
2018-12-09T01:00:35.205Z,2.17
2018-12-09T01:03:03.153Z,2.77
2018-12-09T01:05:31.118Z,2.30
2018-12-09T01:07:59.157Z,2.10
2018-12-09T01:10:27.219Z,2.67
2018-12-09T01:12:55.187Z,2.27
2018-12-09T01:15:23.156Z,2.63
2018-12-09T01:17:51.122Z,2.17
2018-12-09T01:20:19.161Z,1.60
2018-12-09T01:22:48.625Z,1.27
2018-12-09T01:25:16.979Z,1.30
2018-12-09T01:27:44.960Z,0.70
2018-12-09T01:30:13.009Z,0.70
2018-12-09T01:32:41.111Z,0.97
2018-12-09T01:35:09.165Z,0.80
2018-12-09T01:37:37.457Z,0.60
2018-12-09T01:40:05.831Z,0.70
2018-12-09T01:42:33.821Z,0.87
2018-12-09T01:45:01.876Z,0.73
2018-12-09T01:47:29.923Z,0.80
2018-12-09T01:49:57.985Z,0.80
2018-12-09T01:52:25.971Z,0.73
2018-12-09T01:54:53.936Z,0.60
2018-12-09T01:57:22.019Z,0.67
2018-12-09T01:59:50.290Z,0.50
2018-12-09T02:02:18.323Z,0.50
2018-12-09T02:04:46.287Z,0.50
2018-12-09T02:07:14.256Z,0.50
2018-12-09T02:09:42.326Z,0.70
2018-12-09T02:12:10.458Z,0.50
2018-12-09T02:14:38.418Z,0.50
2018-12-09T02:17:06.443Z,0.70
2018-12-09T02:19:34.446Z,0.63
2018-12-09T02:22:02.405Z,0.77
2018-12-09T02:24:30.411Z,0.80
2018-12-09T02:26:59.850Z,0.87
2018-12-09T02:29:27.886Z,0.87
2018-12-09T02:31:55.835Z,1.07
2018-12-09T02:34:23.902Z,1.07
2018-12-09T02:36:51.852Z,1.40
2018-12-09T02:39:19.996Z,1.27
2018-12-09T02:41:48.017Z,0.93
2018-12-09T02:44:16.086Z,1.17
2018-12-09T02:46:44.022Z,1.00
2018-12-09T02:49:11.952Z,1.00
2018-12-09T02:51:40.018Z,1.00
2018-12-09T02:54:08.052Z,0.77
2018-12-09T02:56:36.421Z,0.87
2018-12-09T02:59:04.414Z,0.60
2018-12-09T03:01:32.601Z,0.97
2018-12-09T03:04:00.639Z,0.57
2018-12-09T03:06:28.618Z,0.73
2018-12-09T03:08:56.822Z,0.93
2018-12-09T03:11:24.903Z,0.80
2018-12-09T03:13:52.904Z,0.80
2018-12-09T03:16:22.077Z,0.50
2018-12-09T03:18:50.038Z,0.87
2018-12-09T03:21:18.013Z,0.50
2018-12-09T03:23:46.041Z,0.80
2018-12-09T03:26:14.004Z,0.90
2018-12-09T03:28:41.963Z,0.40
2018-12-09T03:31:12.906Z,0.60
2018-12-09T03:33:41.071Z,0.90
2018-12-09T03:36:09.141Z,0.70
2018-12-09T03:38:37.143Z,0.80
2018-12-09T03:41:05.177Z,0.90
2018-12-09T03:43:33.653Z,0.50
2018-12-09T03:46:01.658Z,1.07
2018-12-09T03:48:36.297Z,0.80
2018-12-09T03:51:04.317Z,0.47
2018-12-09T03:53:32.678Z,0.60
2018-12-09T03:56:03.911Z,0.70
2018-12-09T03:58:31.887Z,0.70
2018-12-09T04:00:59.946Z,0.80
2018-12-09T04:03:27.965Z,0.80
2018-12-09T04:05:55.951Z,0.87
2018-12-09T04:08:23.918Z,1.00
2018-12-09T04:10:51.890Z,0.63
2018-12-09T04:13:19.870Z,0.57
2018-12-09T04:15:47.919Z,0.77
2018-12-09T04:18:15.923Z,1.10
2018-12-09T04:20:43.871Z,0.67
2018-12-09T04:23:11.858Z,0.67
2018-12-09T04:25:40.005Z,0.50
2018-12-09T04:28:08.015Z,0.40
2018-12-09T04:30:35.962Z,0.60
2018-12-09T04:33:03.946Z,0.40
2018-12-09T04:35:31.917Z,0.40
2018-12-09T04:37:59.891Z,0.47
2018-12-09T04:40:27.857Z,1.00
2018-12-09T04:42:55.851Z,0.50
2018-12-09T04:45:23.828Z,0.40
2018-12-09T04:47:51.888Z,0.50
2018-12-09T04:50:19.867Z,0.53
2018-12-09T04:52:48.109Z,0.40
2018-12-09T04:55:16.086Z,0.50
2018-12-09T04:57:44.169Z,0.60
2018-12-09T05:00:17.894Z,0.40
2018-12-09T05:02:45.842Z,0.67
2018-12-09T05:05:13.881Z,0.70
2018-12-09T05:07:41.930Z,0.50
2018-12-09T05:10:09.903Z,0.63
2018-12-09T05:12:37.962Z,0.60
2018-12-09T05:15:06.071Z,0.50
2018-12-09T05:17:34.017Z,0.40
2018-12-09T05:20:02.318Z,0.53
2018-12-09T05:22:30.286Z,0.97
2018-12-09T05:24:58.305Z,0.50
2018-12-09T05:27:26.325Z,0.83
2018-12-09T05:29:54.368Z,0.40
2018-12-09T05:32:22.383Z,0.60
2018-12-09T05:34:50.398Z,0.57
2018-12-09T05:37:18.453Z,0.60
2018-12-09T05:39:46.962Z,0.70
2018-12-09T05:42:14.917Z,0.60
2018-12-09T05:44:42.936Z,0.63
2018-12-09T05:47:11.076Z,0.70
2018-12-09T05:49:39.020Z,0.50
2018-12-09T05:52:07.482Z,0.70
2018-12-09T05:54:35.429Z,0.50
2018-12-09T05:57:03.513Z,0.70
2018-12-09T05:59:31.715Z,0.53
2018-12-09T06:02:05.402Z,0.70
2018-12-09T06:04:33.373Z,0.70
2018-12-09T06:07:01.318Z,0.93
2018-12-09T06:09:29.351Z,0.87
2018-12-09T06:11:57.323Z,0.80
2018-12-09T06:14:25.323Z,0.93
2018-12-09T06:16:53.304Z,0.80
2018-12-09T06:19:21.268Z,1.10
2018-12-09T06:21:49.409Z,1.20
2018-12-09T06:24:17.461Z,1.13
2018-12-09T06:26:45.478Z,1.20
2018-12-09T06:29:13.457Z,1.20
2018-12-09T06:31:41.418Z,1.20
2018-12-09T06:34:09.513Z,1.10
2018-12-09T06:36:37.498Z,1.40
2018-12-09T06:39:05.660Z,1.07
2018-12-09T06:41:33.635Z,1.37
2018-12-09T06:44:01.622Z,1.07
2018-12-09T06:46:29.615Z,1.60
2018-12-09T06:48:57.629Z,1.40
2018-12-09T06:51:25.592Z,1.57
2018-12-09T06:53:53.563Z,1.20
2018-12-09T06:56:21.531Z,1.40
2018-12-09T06:58:49.624Z,0.90
2018-12-09T07:01:17.588Z,1.17
2018-12-09T07:03:45.562Z,1.40
2018-12-09T07:06:14.075Z,1.10
2018-12-09T07:08:42.124Z,1.03
2018-12-09T07:11:10.257Z,1.83
2018-12-09T07:13:38.235Z,1.33
2018-12-09T07:16:06.231Z,1.50
2018-12-09T07:18:34.707Z,0.90
2018-12-09T07:21:02.751Z,1.10
2018-12-09T07:23:30.801Z,1.50
2018-12-09T07:25:58.824Z,0.90
2018-12-09T07:28:26.814Z,1.10
2018-12-09T07:30:55.295Z,1.40
2018-12-09T07:33:23.233Z,1.30
2018-12-09T07:35:51.229Z,1.57
2018-12-09T07:38:19.247Z,1.10
2018-12-09T07:40:47.284Z,1.40
2018-12-09T07:43:15.261Z,1.60
2018-12-09T07:45:43.234Z,1.77
2018-12-09T07:48:11.216Z,1.43
2018-12-09T07:50:39.207Z,0.93
2018-12-09T07:53:07.169Z,1.30
2018-12-09T07:55:35.265Z,1.87
2018-12-09T07:58:03.617Z,1.87
2018-12-09T08:00:31.686Z,1.50
2018-12-09T08:02:59.817Z,1.47
2018-12-09T08:05:27.914Z,1.07
2018-12-09T08:07:56.104Z,1.40
2018-12-09T08:10:24.141Z,1.10
2018-12-09T08:12:52.115Z,1.30
2018-12-09T08:15:20.191Z,1.57
2018-12-09T08:17:48.155Z,1.37
2018-12-09T08:20:16.358Z,1.40
2018-12-09T08:22:44.433Z,1.10
2018-12-09T08:25:12.541Z,1.33
2018-12-09T08:27:40.839Z,1.03
2018-12-09T08:30:08.950Z,1.10
2018-12-09T08:32:37.157Z,1.03
2018-12-09T08:35:05.278Z,0.93
2018-12-09T08:37:33.249Z,1.33
2018-12-09T08:40:01.239Z,1.30
2018-12-09T08:42:29.214Z,1.23
2018-12-09T08:44:57.304Z,1.33
2018-12-09T08:47:25.678Z,1.60
2018-12-09T08:49:53.673Z,1.50
2018-12-09T08:52:21.684Z,1.73
2018-12-09T08:54:50.077Z,1.50
2018-12-09T08:57:18.069Z,1.80
2018-12-09T08:59:46.184Z,1.50
2018-12-09T09:02:14.141Z,1.63
2018-12-09T09:04:42.416Z,1.20
2018-12-09T09:07:10.436Z,1.20
2018-12-09T09:09:38.524Z,1.47
2018-12-09T09:12:06.715Z,1.37
2018-12-09T09:14:34.799Z,1.37
2018-12-09T09:17:02.905Z,1.20
2018-12-09T09:19:31.019Z,0.80
2018-12-09T09:21:59.047Z,1.47
2018-12-09T09:24:27.015Z,1.00
2018-12-09T09:26:55.179Z,0.70
2018-12-09T09:29:23.280Z,0.67
2018-12-09T09:31:51.985Z,0.60
2018-12-09T09:34:20.020Z,0.77
2018-12-09T09:36:48.120Z,0.83
2018-12-09T09:39:16.098Z,0.70
2018-12-09T09:41:44.132Z,0.53
2018-12-09T09:44:12.266Z,0.50
2018-12-09T09:46:41.439Z,0.87
2018-12-09T09:49:09.474Z,0.40
2018-12-09T09:51:37.490Z,0.50
2018-12-09T09:54:05.512Z,0.70
2018-12-09T09:56:33.573Z,0.60
2018-12-09T09:59:01.650Z,0.63
2018-12-09T10:01:29.747Z,0.50
2018-12-09T10:03:57.731Z,1.23
2018-12-09T10:06:25.796Z,1.07
2018-12-09T10:08:53.821Z,1.03
2018-12-09T10:11:21.883Z,1.17
2018-12-09T10:13:49.871Z,1.27
2018-12-09T10:16:17.843Z,0.80
2018-12-09T10:18:45.822Z,0.70
2018-12-09T10:21:13.802Z,0.70
2018-12-09T10:23:41.864Z,1.50
2018-12-09T10:26:09.887Z,0.80
2018-12-09T10:28:37.890Z,0.73
2018-12-09T10:31:05.986Z,0.63
2018-12-09T10:33:33.957Z,0.63
2018-12-09T10:36:02.122Z,0.80
2018-12-09T10:38:30.099Z,0.80
2018-12-09T10:40:58.088Z,0.63
2018-12-09T10:43:26.060Z,0.53
2018-12-09T10:45:54.289Z,0.40
2018-12-09T10:48:22.343Z,0.50
2018-12-09T10:50:50.310Z,0.67
2018-12-09T10:53:18.289Z,0.60
2018-12-09T10:55:46.451Z,0.63
2018-12-09T10:58:14.431Z,0.70
2018-12-09T11:00:48.030Z,1.20
2018-12-09T11:03:15.985Z,1.00
2018-12-09T11:05:44.006Z,0.70
2018-12-09T11:08:12.078Z,0.80
2018-12-09T11:10:40.090Z,1.07
2018-12-09T11:13:08.172Z,0.90
2018-12-09T11:15:36.944Z,1.10
2018-12-09T11:18:05.054Z,1.10
2018-12-09T11:20:33.055Z,0.97
2018-12-09T11:23:01.032Z,1.47
2018-12-09T11:25:29.207Z,1.33
2018-12-09T11:27:57.175Z,1.43
2018-12-09T11:30:25.236Z,1.30
2018-12-09T11:32:53.217Z,1.47
2018-12-09T11:35:21.288Z,1.10
2018-12-09T11:37:49.263Z,1.10
2018-12-09T11:40:17.259Z,1.73
2018-12-09T11:42:45.257Z,1.60
2018-12-09T11:45:13.234Z,0.87
2018-12-09T11:47:41.242Z,1.20
2018-12-09T11:50:09.445Z,0.90
2018-12-09T11:52:37.481Z,1.20
2018-12-09T11:55:05.609Z,0.83
2018-12-09T11:57:33.560Z,0.83
2018-12-09T12:00:01.572Z,1.20
2018-12-09T12:02:29.733Z,1.00
2018-12-09T12:04:57.691Z,0.90
2018-12-09T12:07:25.725Z,1.07
2018-12-09T12:09:53.717Z,0.60
2018-12-09T12:12:21.704Z,1.10
2018-12-09T12:14:49.712Z,0.97
2018-12-09T12:17:17.710Z,1.50
2018-12-09T12:19:45.741Z,1.17
2018-12-09T12:22:13.708Z,0.70
2018-12-09T12:24:41.726Z,0.70
2018-12-09T12:27:09.885Z,1.03
2018-12-09T12:29:37.940Z,1.00
2018-12-09T12:32:05.951Z,1.20
2018-12-09T12:34:33.919Z,1.37
2018-12-09T12:37:01.997Z,0.93
2018-12-09T12:39:30.019Z,1.10
2018-12-09T12:41:58.061Z,1.23
2018-12-09T12:44:26.111Z,1.47
2018-12-09T12:46:54.352Z,1.10
2018-12-09T12:49:22.459Z,1.67
2018-12-09T12:51:50.504Z,1.07
2018-12-09T12:54:18.607Z,1.47
2018-12-09T12:56:46.608Z,1.63
2018-12-09T12:59:14.583Z,0.77
2018-12-09T13:01:42.663Z,1.00
2018-12-09T13:04:10.748Z,1.17
2018-12-09T13:06:38.822Z,1.00
2018-12-09T13:09:07.530Z,0.80
2018-12-09T13:11:35.498Z,0.80
2018-12-09T13:14:03.569Z,1.47
2018-12-09T13:16:31.549Z,1.13
2018-12-09T13:18:59.599Z,1.17
2018-12-09T13:21:27.647Z,1.00
2018-12-09T13:23:55.608Z,1.77
2018-12-09T13:26:23.928Z,1.77
2018-12-09T13:28:51.968Z,2.07
2018-12-09T13:31:19.943Z,1.77
2018-12-09T13:33:48.019Z,1.10
2018-12-09T13:36:16.012Z,1.43
2018-12-09T13:38:44.014Z,1.37
2018-12-09T13:41:12.053Z,1.90
2018-12-09T13:43:40.034Z,2.10
2018-12-09T13:46:08.080Z,1.40
2018-12-09T13:48:36.257Z,1.73
2018-12-09T13:51:04.449Z,1.60
2018-12-09T13:53:32.507Z,1.87
2018-12-09T13:56:00.523Z,1.60
2018-12-09T13:58:28.540Z,1.90
2018-12-09T14:00:58.181Z,1.70
2018-12-09T14:03:26.214Z,1.60
2018-12-09T14:05:54.278Z,1.87
2018-12-09T14:08:22.625Z,1.13
2018-12-09T14:10:52.017Z,1.87
2018-12-09T14:13:20.161Z,1.07
2018-12-09T14:15:48.154Z,1.17
2018-12-09T14:18:16.190Z,1.00
2018-12-09T14:20:44.587Z,1.13
2018-12-09T14:23:13.590Z,1.20
2018-12-09T14:25:41.958Z,0.63
2018-12-09T14:28:10.293Z,0.80
2018-12-09T14:38:40.793Z,1.40
2018-12-09T14:41:08.903Z,1.10
2018-12-09T15:07:52.668Z,1.50
2018-12-09T15:16:30.355Z,1.17
2018-12-09T15:19:00.701Z,1.70
2018-12-09T15:21:30.924Z,1.47
2018-12-09T15:24:00.311Z,1.70
2018-12-09T15:26:29.656Z,1.80
2018-12-09T15:28:59.164Z,1.60
2018-12-09T15:31:28.663Z,2.43
2018-12-09T15:34:01.794Z,2.10
2018-12-09T15:36:31.924Z,2.63
2018-12-09T15:39:01.102Z,2.20
2018-12-09T15:41:30.535Z,2.27
2018-12-09T15:43:59.975Z,2.57
2018-12-09T15:46:29.413Z,2.53
2018-12-09T15:48:59.139Z,1.70
2018-12-09T15:51:28.499Z,2.03
2018-12-09T15:54:01.324Z,2.23
2018-12-09T15:56:30.741Z,2.03
2018-12-09T15:59:00.819Z,2.33
2018-12-09T16:01:30.473Z,1.60
2018-12-09T16:03:59.844Z,2.00
2018-12-09T16:06:37.935Z,1.93
2018-12-09T16:09:08.389Z,2.27
2018-12-09T16:11:37.789Z,1.60
2018-12-09T16:14:07.018Z,2.13
2018-12-09T16:16:36.365Z,2.60
2018-12-09T16:19:05.989Z,2.37
2018-12-09T16:21:35.293Z,1.40
2018-12-09T16:24:04.583Z,2.30
2018-12-09T16:26:33.599Z,1.30
2018-12-09T16:29:02.870Z,1.53
2018-12-09T16:31:31.885Z,2.20
2018-12-09T16:34:00.919Z,1.00
2018-12-09T16:36:30.092Z,1.30
2018-12-09T16:38:59.174Z,2.90
2018-12-09T16:41:28.319Z,1.30
2018-12-09T16:43:57.338Z,2.27
2018-12-09T16:46:26.573Z,2.13
2018-12-09T16:48:55.704Z,2.13
2018-12-09T16:51:25.135Z,1.93
2018-12-09T16:53:54.253Z,2.10
2018-12-09T16:56:23.384Z,1.60
2018-12-09T16:58:52.464Z,1.47
2018-12-09T17:01:21.529Z,1.40
2018-12-09T17:03:50.688Z,2.10
2018-12-09T17:06:19.761Z,1.63
2018-12-09T17:08:48.977Z,3.90
2018-12-09T17:11:18.088Z,2.57
2018-12-09T17:13:47.140Z,2.23
2018-12-09T17:16:17.274Z,2.07
2018-12-09T17:18:47.134Z,1.30
2018-12-09T17:21:16.844Z,2.50
2018-12-09T17:23:47.175Z,2.23
2018-12-09T17:26:16.739Z,2.87
2018-12-09T17:28:46.373Z,2.23
2018-12-09T17:31:15.877Z,2.37
2018-12-09T17:33:46.481Z,2.53
2018-12-09T17:36:17.632Z,2.13
2018-12-09T17:38:47.437Z,2.63
2018-12-09T17:41:24.955Z,1.87
2018-12-09T17:43:49.439Z,2.40
2018-12-09T17:46:18.542Z,2.87
2018-12-09T17:48:49.896Z,2.10
2018-12-09T17:51:19.759Z,2.33
2018-12-09T17:53:49.620Z,2.03
2018-12-09T17:56:20.777Z,2.13
2018-12-09T17:58:49.953Z,1.93
2018-12-09T18:01:22.066Z,2.40
2018-12-09T18:03:52.547Z,2.97
2018-12-09T18:06:21.736Z,2.80
2018-12-09T18:08:53.750Z,2.67
2018-12-09T18:11:26.593Z,1.60
2018-12-09T18:13:56.956Z,2.27
2018-12-09T18:16:26.153Z,1.80
2018-12-09T18:18:56.250Z,2.00
2018-12-09T18:21:25.355Z,2.10
2018-12-09T18:23:54.826Z,2.40
2018-12-09T18:26:24.041Z,2.03
2018-12-09T18:28:53.381Z,2.50
2018-12-09T18:31:22.619Z,1.97
2018-12-09T18:33:51.970Z,1.73
2018-12-09T18:36:21.839Z,2.20
2018-12-09T18:38:51.242Z,1.53
2018-12-09T18:41:21.039Z,1.73
2018-12-09T18:43:50.862Z,2.47
2018-12-09T18:46:20.073Z,1.50
2018-12-09T18:48:50.066Z,3.33
2018-12-09T18:51:19.322Z,3.33
2018-12-09T18:53:49.837Z,2.53
2018-12-09T18:56:19.032Z,1.60
2018-12-09T18:58:48.219Z,1.67
2018-12-09T19:01:17.552Z,1.60
2018-12-09T19:03:46.742Z,1.77
2018-12-09T19:06:16.836Z,1.93
2018-12-09T19:08:46.188Z,2.27
2018-12-09T19:11:15.525Z,1.87
2018-12-09T19:13:44.849Z,1.87
2018-12-09T19:16:15.039Z,2.17
2018-12-09T19:18:44.320Z,1.80
2018-12-09T19:21:13.894Z,2.40
2018-12-09T19:23:44.774Z,2.00
2018-12-09T19:26:16.812Z,1.83
2018-12-09T19:28:46.971Z,2.67
2018-12-09T19:31:16.476Z,2.70
2018-12-09T19:33:49.059Z,2.50
2018-12-09T19:36:19.616Z,2.77
2018-12-09T19:38:49.054Z,2.37
2018-12-09T19:41:18.615Z,2.53
2018-12-09T19:43:48.646Z,2.53
2018-12-09T19:46:18.393Z,2.37
2018-12-09T19:48:48.093Z,2.73
2018-12-09T19:51:17.797Z,2.17
2018-12-09T19:53:47.548Z,2.30
2018-12-09T19:56:17.030Z,2.37
2018-12-09T19:58:46.452Z,2.33
2018-12-09T20:01:15.948Z,1.90
2018-12-09T20:03:45.485Z,2.07
2018-12-09T20:06:15.091Z,1.87
2018-12-09T20:08:44.756Z,1.53
2018-12-09T20:11:15.288Z,2.47
2018-12-09T20:13:45.112Z,2.27
2018-12-09T20:16:14.843Z,2.97
2018-12-09T20:18:45.271Z,2.37
2018-12-09T20:21:16.410Z,2.50
2018-12-09T20:23:46.460Z,2.60
2018-12-09T20:26:16.412Z,2.60
2018-12-09T20:28:46.074Z,2.83
2018-12-09T20:31:16.333Z,2.43
2018-12-09T20:33:46.085Z,2.40
2018-12-09T20:36:15.461Z,3.03
2018-12-09T20:38:45.042Z,2.90
2018-12-09T20:41:15.119Z,2.93
2018-12-09T20:43:45.122Z,3.50
2018-12-09T20:46:15.014Z,3.33
2018-12-09T20:48:44.622Z,2.30
2018-12-09T20:51:14.258Z,2.67
2018-12-09T20:53:44.235Z,3.03
2018-12-09T20:56:13.780Z,2.80
2018-12-09T20:58:43.849Z,3.17
2018-12-09T21:01:13.227Z,2.83
2018-12-09T21:03:42.841Z,3.50
2018-12-09T21:06:12.208Z,2.43
2018-12-09T21:08:41.540Z,2.43
2018-12-09T21:11:10.966Z,2.70
2018-12-09T21:13:40.503Z,3.00
2018-12-09T21:16:09.849Z,3.27
2018-12-09T21:18:39.150Z,3.00
2018-12-09T21:21:08.448Z,2.77
2018-12-09T21:25:30.096Z,2.43
2018-12-09T21:27:59.737Z,3.37
2018-12-09T21:30:29.405Z,2.17
2018-12-09T21:32:58.532Z,3.10
2018-12-09T21:35:27.725Z,1.97
2018-12-09T21:37:56.946Z,3.30
2018-12-09T21:40:26.284Z,3.10
2018-12-09T21:42:55.598Z,2.93
2018-12-09T21:45:24.774Z,2.57
2018-12-09T21:47:53.878Z,2.73
2018-12-09T21:50:23.055Z,2.63
2018-12-09T21:52:52.225Z,2.40
2018-12-09T21:55:21.320Z,2.40
2018-12-09T21:57:50.399Z,2.00
2018-12-09T22:00:19.422Z,2.50
2018-12-09T22:02:48.484Z,2.17
2018-12-09T22:05:17.575Z,2.63
2018-12-09T22:07:46.658Z,2.80
2018-12-09T22:10:16.405Z,2.30
2018-12-09T22:12:45.591Z,2.10
2018-12-09T22:15:14.687Z,2.60
2018-12-09T22:17:43.783Z,3.43
2018-12-09T22:20:12.958Z,3.80
2018-12-09T22:22:42.151Z,3.97
2018-12-09T22:25:11.179Z,2.20
2018-12-09T22:27:40.348Z,2.20
2018-12-09T22:30:09.529Z,2.37
2018-12-09T22:32:38.724Z,3.17
2018-12-09T22:35:08.286Z,2.67
2018-12-09T22:37:37.312Z,3.37
2018-12-09T22:40:08.241Z,2.50
2018-12-09T22:42:38.436Z,1.93
2018-12-09T22:45:07.683Z,3.97
2018-12-09T22:47:36.736Z,1.80
2018-12-09T22:50:05.925Z,2.80
2018-12-09T22:52:34.952Z,2.50
2018-12-09T22:55:04.413Z,3.33
2018-12-09T22:57:33.475Z,2.80
2018-12-09T23:00:02.569Z,1.90
2018-12-09T23:02:36.947Z,2.47
2018-12-09T23:05:06.196Z,2.13
2018-12-09T23:07:40.650Z,1.73
2018-12-09T23:10:09.758Z,1.73
2018-12-09T23:12:38.776Z,2.47
2018-12-09T23:15:07.868Z,1.80
2018-12-09T23:17:36.875Z,2.10
2018-12-09T23:20:05.960Z,2.47
2018-12-09T23:22:34.956Z,2.00
2018-12-09T23:25:04.228Z,1.73
2018-12-09T23:27:33.237Z,1.40
2018-12-09T23:30:02.316Z,1.63
2018-12-09T23:32:31.395Z,1.97
2018-12-09T23:35:00.428Z,1.77
2018-12-09T23:37:29.521Z,1.33
2018-12-09T23:39:58.528Z,1.43
2018-12-09T23:42:27.572Z,1.90
2018-12-09T23:44:56.562Z,1.50
2018-12-09T23:47:25.549Z,1.23
2018-12-09T23:49:54.594Z,1.40
2018-12-09T23:52:23.590Z,1.20
2018-12-09T23:54:52.588Z,1.40
2018-12-09T23:57:21.617Z,1.07
2018-12-09T23:59:50.639Z,1.63
